Deganwy, United Kingdom
Current Conditions -  °F | °C
As of 2:50 AM on Tuesday 21 Oct 2014 (Local Time) from EGOV Reporting Station
Haze Haze  
Wind Chill: 59°   Ceiling: 1000
Heat Index: 59°   Visibility: 4mi
Dew Point: 55°   Wind: 39mph
Humidity: 88%   Direction: 210°SSW
Pressure: 29.41"   Gusts: 51mph
Location:  53.3°N, 3.83°W
Report Text: EGOV 210150Z AUTO 21034G44KT 7000 HZ BKN010/// 15/13 Q0996 RERA
Loading
Personal Weather Stations






























Interactive Weather Map
Tropical Storm Tracking
New forecast layout! Learn more

10-Day Weather Forecast

Advertisements
Track Severe Weather on mobile